sensor_id;sensor_type;location;lat;lon;timestamp;temperature;humidity
51637;DHT22;37713;53.254;6.460;2022-08-07T00:01:35;12.00;99.90
51637;DHT22;37713;53.254;6.460;2022-08-07T00:04:01;12.00;99.90
51637;DHT22;37713;53.254;6.460;2022-08-07T00:06:27;12.00;99.90
51637;DHT22;37713;53.254;6.460;2022-08-07T00:08:53;11.90;99.90
51637;DHT22;37713;53.254;6.460;2022-08-07T00:11:18;11.90;99.90
51637;DHT22;37713;53.254;6.460;2022-08-07T00:13:44;11.90;99.90
51637;DHT22;37713;53.254;6.460;2022-08-07T00:16:12;11.90;99.90
51637;DHT22;37713;53.254;6.460;2022-08-07T00:18:39;11.90;99.90
51637;DHT22;37713;53.254;6.460;2022-08-07T00:21:07;11.90;99.90
51637;DHT22;37713;53.254;6.460;2022-08-07T00:23:35;11.80;99.90
51637;DHT22;37713;53.254;6.460;2022-08-07T00:26:02;11.80;99.90
51637;DHT22;37713;53.254;6.460;2022-08-07T00:28:29;11.80;99.90
51637;DHT22;37713;53.254;6.460;2022-08-07T00:30:55;11.70;99.90
51637;DHT22;37713;53.254;6.460;2022-08-07T00:33:21;11.80;99.90
51637;DHT22;37713;53.254;6.460;2022-08-07T00:35:56;11.80;99.90
51637;DHT22;37713;53.254;6.460;2022-08-07T00:38:23;11.80;99.90
51637;DHT22;37713;53.254;6.460;2022-08-07T00:40:49;11.80;99.90
51637;DHT22;37713;53.254;6.460;2022-08-07T00:43:15;11.70;99.90
51637;DHT22;37713;53.254;6.460;2022-08-07T00:45:41;11.80;99.90
51637;DHT22;37713;53.254;6.460;2022-08-07T00:48:08;11.80;99.90
51637;DHT22;37713;53.254;6.460;2022-08-07T00:50:34;11.80;99.90
51637;DHT22;37713;53.254;6.460;2022-08-07T00:53:00;11.70;99.90
51637;DHT22;37713;53.254;6.460;2022-08-07T00:55:27;11.70;99.90
51637;DHT22;37713;53.254;6.460;2022-08-07T00:57:54;11.70;99.90
51637;DHT22;37713;53.254;6.460;2022-08-07T01:00:20;11.60;99.90
51637;DHT22;37713;53.254;6.460;2022-08-07T01:02:45;11.60;99.90
51637;DHT22;37713;53.254;6.460;2022-08-07T01:05:12;11.60;99.90
51637;DHT22;37713;53.254;6.460;2022-08-07T01:07:38;11.50;99.90
51637;DHT22;37713;53.254;6.460;2022-08-07T01:10:06;11.50;99.90
51637;DHT22;37713;53.254;6.460;2022-08-07T01:12:34;11.50;99.90
51637;DHT22;37713;53.254;6.460;2022-08-07T01:14:59;11.40;99.90
51637;DHT22;37713;53.254;6.460;2022-08-07T01:17:27;11.40;99.90
51637;DHT22;37713;53.254;6.460;2022-08-07T01:19:57;11.40;99.90
51637;DHT22;37713;53.254;6.460;2022-08-07T01:22:26;11.40;99.90
51637;DHT22;37713;53.254;6.460;2022-08-07T01:24:52;11.40;99.90
51637;DHT22;37713;53.254;6.460;2022-08-07T01:27:18;11.30;99.90
51637;DHT22;37713;53.254;6.460;2022-08-07T01:29:44;11.30;99.90
51637;DHT22;37713;53.254;6.460;2022-08-07T01:32:10;11.40;99.90
51637;DHT22;37713;53.254;6.460;2022-08-07T01:34:36;11.30;99.90
51637;DHT22;37713;53.254;6.460;2022-08-07T01:37:02;11.30;99.90
51637;DHT22;37713;53.254;6.460;2022-08-07T01:39:28;11.30;99.90
51637;DHT22;37713;53.254;6.460;2022-08-07T01:41:54;11.30;99.90
51637;DHT22;37713;53.254;6.460;2022-08-07T01:44:20;11.20;99.90
51637;DHT22;37713;53.254;6.460;2022-08-07T01:46:46;11.30;99.90
51637;DHT22;37713;53.254;6.460;2022-08-07T01:49:12;11.20;99.90
51637;DHT22;37713;53.254;6.460;2022-08-07T01:51:40;11.20;99.90
51637;DHT22;37713;53.254;6.460;2022-08-07T01:54:10;11.10;99.90
51637;DHT22;37713;53.254;6.460;2022-08-07T01:59:39;11.10;99.90
51637;DHT22;37713;53.254;6.460;2022-08-07T02:02:10;11.10;99.90
51637;DHT22;37713;53.254;6.460;2022-08-07T02:04:46;11.00;99.90
51637;DHT22;37713;53.254;6.460;2022-08-07T02:07:16;11.00;99.90
51637;DHT22;37713;53.254;6.460;2022-08-07T02:09:44;10.90;99.90
51637;DHT22;37713;53.254;6.460;2022-08-07T02:12:12;10.90;99.90
51637;DHT22;37713;53.254;6.460;2022-08-07T02:14:48;10.80;99.90
51637;DHT22;37713;53.254;6.460;2022-08-07T02:17:15;10.80;99.90
51637;DHT22;37713;53.254;6.460;2022-08-07T02:19:43;10.80;99.90
51637;DHT22;37713;53.254;6.460;2022-08-07T02:22:12;10.80;99.90
51637;DHT22;37713;53.254;6.460;2022-08-07T02:24:43;10.80;99.90
51637;DHT22;37713;53.254;6.460;2022-08-07T02:27:11;10.70;99.90
51637;DHT22;37713;53.254;6.460;2022-08-07T02:29:41;10.80;99.90
51637;DHT22;37713;53.254;6.460;2022-08-07T02:32:08;10.80;99.90
51637;DHT22;37713;53.254;6.460;2022-08-07T02:34:36;10.80;99.90
51637;DHT22;37713;53.254;6.460;2022-08-07T02:37:03;10.80;99.90
51637;DHT22;37713;53.254;6.460;2022-08-07T02:39:32;10.80;99.90
51637;DHT22;37713;53.254;6.460;2022-08-07T02:41:59;10.70;99.90
51637;DHT22;37713;53.254;6.460;2022-08-07T02:44:27;10.70;99.90
51637;DHT22;37713;53.254;6.460;2022-08-07T02:46:56;10.80;99.90
51637;DHT22;37713;53.254;6.460;2022-08-07T02:49:23;10.70;99.90
51637;DHT22;37713;53.254;6.460;2022-08-07T02:51:49;10.80;99.90
51637;DHT22;37713;53.254;6.460;2022-08-07T02:54:17;10.70;99.90
51637;DHT22;37713;53.254;6.460;2022-08-07T02:56:46;10.70;99.90
51637;DHT22;37713;53.254;6.460;2022-08-07T02:59:17;10.70;99.90
51637;DHT22;37713;53.254;6.460;2022-08-07T03:01:44;10.70;99.90
51637;DHT22;37713;53.254;6.460;2022-08-07T03:04:12;10.70;99.90
51637;DHT22;37713;53.254;6.460;2022-08-07T03:06:40;10.70;99.90
51637;DHT22;37713;53.254;6.460;2022-08-07T03:09:08;10.60;99.90
51637;DHT22;37713;53.254;6.460;2022-08-07T03:11:34;10.60;99.90
51637;DHT22;37713;53.254;6.460;2022-08-07T03:14:02;10.60;99.90
51637;DHT22;37713;53.254;6.460;2022-08-07T03:16:33;10.60;99.90
51637;DHT22;37713;53.254;6.460;2022-08-07T03:18:59;10.60;99.90
51637;DHT22;37713;53.254;6.460;2022-08-07T03:21:26;10.50;99.90
51637;DHT22;37713;53.254;6.460;2022-08-07T03:23:57;10.50;99.90
51637;DHT22;37713;53.254;6.460;2022-08-07T03:26:26;10.50;99.90
51637;DHT22;37713;53.254;6.460;2022-08-07T03:28:57;10.40;99.90
51637;DHT22;37713;53.254;6.460;2022-08-07T03:31:26;10.40;99.90
51637;DHT22;37713;53.254;6.460;2022-08-07T03:34:03;10.50;99.90
51637;DHT22;37713;53.254;6.460;2022-08-07T03:36:31;10.40;99.90
51637;DHT22;37713;53.254;6.460;2022-08-07T03:39:04;10.40;99.90
51637;DHT22;37713;53.254;6.460;2022-08-07T03:41:31;10.40;99.90
51637;DHT22;37713;53.254;6.460;2022-08-07T03:43:58;10.40;99.90
51637;DHT22;37713;53.254;6.460;2022-08-07T03:46:24;10.40;99.90
51637;DHT22;37713;53.254;6.460;2022-08-07T03:48:51;10.40;99.90
51637;DHT22;37713;53.254;6.460;2022-08-07T03:51:19;10.40;99.90
51637;DHT22;37713;53.254;6.460;2022-08-07T03:53:46;10.40;99.90
51637;DHT22;37713;53.254;6.460;2022-08-07T03:56:15;10.30;99.90
51637;DHT22;37713;53.254;6.460;2022-08-07T03:58:41;10.30;99.90
51637;DHT22;37713;53.254;6.460;2022-08-07T04:01:09;10.30;99.90
51637;DHT22;37713;53.254;6.460;2022-08-07T04:03:35;10.40;99.90
51637;DHT22;37713;53.254;6.460;2022-08-07T04:06:01;10.40;99.90
51637;DHT22;37713;53.254;6.460;2022-08-07T04:08:27;10.40;99.90
51637;DHT22;37713;53.254;6.460;2022-08-07T04:10:55;10.40;99.90
51637;DHT22;37713;53.254;6.460;2022-08-07T04:13:22;10.40;99.90
51637;DHT22;37713;53.254;6.460;2022-08-07T04:15:48;10.40;99.90
51637;DHT22;37713;53.254;6.460;2022-08-07T04:18:14;10.40;99.90
51637;DHT22;37713;53.254;6.460;2022-08-07T04:20:42;10.40;99.90
51637;DHT22;37713;53.254;6.460;2022-08-07T04:23:08;10.40;99.90
51637;DHT22;37713;53.254;6.460;2022-08-07T04:25:35;10.50;99.90
51637;DHT22;37713;53.254;6.460;2022-08-07T04:28:05;10.50;99.90
51637;DHT22;37713;53.254;6.460;2022-08-07T04:30:32;10.30;99.90
51637;DHT22;37713;53.254;6.460;2022-08-07T04:32:58;10.40;99.90
51637;DHT22;37713;53.254;6.460;2022-08-07T04:35:25;10.50;99.90
51637;DHT22;37713;53.254;6.460;2022-08-07T04:37:51;10.50;99.90
51637;DHT22;37713;53.254;6.460;2022-08-07T04:40:20;10.40;99.90
51637;DHT22;37713;53.254;6.460;2022-08-07T04:42:46;10.50;99.90
51637;DHT22;37713;53.254;6.460;2022-08-07T04:45:13;10.50;99.90
51637;DHT22;37713;53.254;6.460;2022-08-07T04:48:05;10.50;99.90
51637;DHT22;37713;53.254;6.460;2022-08-07T04:50:51;10.60;99.90
51637;DHT22;37713;53.254;6.460;2022-08-07T04:53:26;10.60;99.90
51637;DHT22;37713;53.254;6.460;2022-08-07T04:56:23;10.60;99.90
51637;DHT22;37713;53.254;6.460;2022-08-07T04:59:01;10.70;99.90
51637;DHT22;37713;53.254;6.460;2022-08-07T05:01:48;10.70;99.90
51637;DHT22;37713;53.254;6.460;2022-08-07T05:04:25;10.80;99.90
51637;DHT22;37713;53.254;6.460;2022-08-07T05:09:53;10.80;99.90
51637;DHT22;37713;53.254;6.460;2022-08-07T05:12:50;10.80;99.90
51637;DHT22;37713;53.254;6.460;2022-08-07T05:15:24;10.90;99.90
51637;DHT22;37713;53.254;6.460;2022-08-07T05:18:04;10.90;99.90
51637;DHT22;37713;53.254;6.460;2022-08-07T05:20:37;11.00;99.90
51637;DHT22;37713;53.254;6.460;2022-08-07T05:23:08;11.10;99.90
51637;DHT22;37713;53.254;6.460;2022-08-07T05:25:35;11.10;99.90
51637;DHT22;37713;53.254;6.460;2022-08-07T05:28:02;11.20;99.90
51637;DHT22;37713;53.254;6.460;2022-08-07T05:30:29;11.20;99.90
51637;DHT22;37713;53.254;6.460;2022-08-07T05:32:56;11.30;99.90
51637;DHT22;37713;53.254;6.460;2022-08-07T05:35:23;11.30;99.90
51637;DHT22;37713;53.254;6.460;2022-08-07T05:37:49;11.40;99.90
51637;DHT22;37713;53.254;6.460;2022-08-07T05:40:15;11.50;99.90
51637;DHT22;37713;53.254;6.460;2022-08-07T05:42:43;11.60;99.90
51637;DHT22;37713;53.254;6.460;2022-08-07T05:45:11;11.70;99.90
51637;DHT22;37713;53.254;6.460;2022-08-07T05:47:37;11.70;99.90
51637;DHT22;37713;53.254;6.460;2022-08-07T05:50:04;11.80;99.90
51637;DHT22;37713;53.254;6.460;2022-08-07T05:52:31;11.90;99.90
51637;DHT22;37713;53.254;6.460;2022-08-07T05:54:57;12.00;99.90
51637;DHT22;37713;53.254;6.460;2022-08-07T05:57:23;12.10;99.90
51637;DHT22;37713;53.254;6.460;2022-08-07T05:59:52;12.20;99.90
51637;DHT22;37713;53.254;6.460;2022-08-07T06:02:19;12.30;99.90
51637;DHT22;37713;53.254;6.460;2022-08-07T06:04:50;12.30;99.90
51637;DHT22;37713;53.254;6.460;2022-08-07T06:07:17;12.40;99.90
51637;DHT22;37713;53.254;6.460;2022-08-07T06:09:43;12.50;99.90
51637;DHT22;37713;53.254;6.460;2022-08-07T06:12:10;12.60;99.90
51637;DHT22;37713;53.254;6.460;2022-08-07T06:14:35;12.70;99.90
51637;DHT22;37713;53.254;6.460;2022-08-07T06:17:04;12.80;99.90
51637;DHT22;37713;53.254;6.460;2022-08-07T06:19:31;12.90;99.90
51637;DHT22;37713;53.254;6.460;2022-08-07T06:21:57;13.00;99.90
51637;DHT22;37713;53.254;6.460;2022-08-07T06:24:23;13.10;99.90
51637;DHT22;37713;53.254;6.460;2022-08-07T06:26:49;13.40;99.90
51637;DHT22;37713;53.254;6.460;2022-08-07T06:29:15;14.20;99.90
51637;DHT22;37713;53.254;6.460;2022-08-07T06:31:40;15.40;99.90
51637;DHT22;37713;53.254;6.460;2022-08-07T06:34:06;16.80;99.90
51637;DHT22;37713;53.254;6.460;2022-08-07T06:36:32;17.80;99.90
51637;DHT22;37713;53.254;6.460;2022-08-07T06:38:57;18.80;99.90
51637;DHT22;37713;53.254;6.460;2022-08-07T06:41:30;19.60;99.90
51637;DHT22;37713;53.254;6.460;2022-08-07T06:43:59;20.40;99.90
51637;DHT22;37713;53.254;6.460;2022-08-07T06:46:25;21.10;99.90
51637;DHT22;37713;53.254;6.460;2022-08-07T06:48:51;21.60;99.90
51637;DHT22;37713;53.254;6.460;2022-08-07T06:51:20;22.00;99.90
51637;DHT22;37713;53.254;6.460;2022-08-07T06:53:47;22.50;99.90
51637;DHT22;37713;53.254;6.460;2022-08-07T06:56:15;22.80;99.90
51637;DHT22;37713;53.254;6.460;2022-08-07T06:58:43;22.90;99.90
51637;DHT22;37713;53.254;6.460;2022-08-07T07:01:11;23.40;99.90
51637;DHT22;37713;53.254;6.460;2022-08-07T07:03:39;23.40;99.90
51637;DHT22;37713;53.254;6.460;2022-08-07T07:06:09;23.80;99.90
51637;DHT22;37713;53.254;6.460;2022-08-07T07:08:35;24.30;99.90
51637;DHT22;37713;53.254;6.460;2022-08-07T07:11:03;24.60;99.90
51637;DHT22;37713;53.254;6.460;2022-08-07T07:13:37;24.80;99.90
51637;DHT22;37713;53.254;6.460;2022-08-07T07:16:10;25.10;99.90
51637;DHT22;37713;53.254;6.460;2022-08-07T07:18:49;25.30;99.90
51637;DHT22;37713;53.254;6.460;2022-08-07T07:21:28;25.00;97.90
51637;DHT22;37713;53.254;6.460;2022-08-07T07:23:54;25.10;95.70
51637;DHT22;37713;53.254;6.460;2022-08-07T07:26:22;25.30;96.40
51637;DHT22;37713;53.254;6.460;2022-08-07T07:28:57;25.30;94.70
51637;DHT22;37713;53.254;6.460;2022-08-07T07:31:37;25.30;92.50
51637;DHT22;37713;53.254;6.460;2022-08-07T07:34:08;25.30;91.70
51637;DHT22;37713;53.254;6.460;2022-08-07T07:36:37;25.30;93.00
51637;DHT22;37713;53.254;6.460;2022-08-07T07:39:04;25.40;92.60
51637;DHT22;37713;53.254;6.460;2022-08-07T07:41:32;25.40;92.10
51637;DHT22;37713;53.254;6.460;2022-08-07T07:44:00;25.40;91.40
51637;DHT22;37713;53.254;6.460;2022-08-07T07:46:32;25.50;91.70
51637;DHT22;37713;53.254;6.460;2022-08-07T07:48:59;25.50;91.10
51637;DHT22;37713;53.254;6.460;2022-08-07T07:51:26;25.30;91.10
51637;DHT22;37713;53.254;6.460;2022-08-07T07:53:54;25.40;91.00
51637;DHT22;37713;53.254;6.460;2022-08-07T07:56:23;25.30;90.80
51637;DHT22;37713;53.254;6.460;2022-08-07T07:58:50;25.20;90.50
51637;DHT22;37713;53.254;6.460;2022-08-07T08:01:18;25.00;89.10
51637;DHT22;37713;53.254;6.460;2022-08-07T08:03:46;24.90;89.90
51637;DHT22;37713;53.254;6.460;2022-08-07T08:06:14;24.60;89.30
51637;DHT22;37713;53.254;6.460;2022-08-07T08:08:42;24.50;89.10
51637;DHT22;37713;53.254;6.460;2022-08-07T08:11:09;24.40;89.30
51637;DHT22;37713;53.254;6.460;2022-08-07T08:13:41;24.40;90.10
51637;DHT22;37713;53.254;6.460;2022-08-07T08:16:11;24.50;89.20
51637;DHT22;37713;53.254;6.460;2022-08-07T08:18:39;24.30;89.00
51637;DHT22;37713;53.254;6.460;2022-08-07T08:21:05;24.30;90.20
51637;DHT22;37713;53.254;6.460;2022-08-07T08:23:51;24.50;90.70
51637;DHT22;37713;53.254;6.460;2022-08-07T08:26:59;24.40;90.80
51637;DHT22;37713;53.254;6.460;2022-08-07T08:29:48;24.40;90.70
51637;DHT22;37713;53.254;6.460;2022-08-07T08:32:17;24.30;90.20
51637;DHT22;37713;53.254;6.460;2022-08-07T08:34:46;24.20;90.90
51637;DHT22;37713;53.254;6.460;2022-08-07T08:37:15;24.20;90.90
51637;DHT22;37713;53.254;6.460;2022-08-07T08:39:44;24.30;91.10
51637;DHT22;37713;53.254;6.460;2022-08-07T08:47:24;24.00;91.00
51637;DHT22;37713;53.254;6.460;2022-08-07T08:50:19;24.00;91.10
51637;DHT22;37713;53.254;6.460;2022-08-07T08:56:00;23.80;87.70
51637;DHT22;37713;53.254;6.460;2022-08-07T08:58:51;23.70;90.70
51637;DHT22;37713;53.254;6.460;2022-08-07T09:07:00;23.50;91.30
51637;DHT22;37713;53.254;6.460;2022-08-07T09:17:36;24.00;91.00
51637;DHT22;37713;53.254;6.460;2022-08-07T09:20:28;23.70;90.30
51637;DHT22;37713;53.254;6.460;2022-08-07T09:23:12;23.70;89.50
51637;DHT22;37713;53.254;6.460;2022-08-07T09:28:38;23.20;91.90
51637;DHT22;37713;53.254;6.460;2022-08-07T09:31:32;23.40;91.60
51637;DHT22;37713;53.254;6.460;2022-08-07T09:34:17;23.40;90.80
51637;DHT22;37713;53.254;6.460;2022-08-07T09:37:06;23.40;88.40
51637;DHT22;37713;53.254;6.460;2022-08-07T09:42:55;23.60;90.10
51637;DHT22;37713;53.254;6.460;2022-08-07T09:45:43;23.70;90.40
51637;DHT22;37713;53.254;6.460;2022-08-07T09:51:14;23.30;90.20
51637;DHT22;37713;53.254;6.460;2022-08-07T09:53:50;23.20;90.30
51637;DHT22;37713;53.254;6.460;2022-08-07T10:12:39;23.20;88.20
51637;DHT22;37713;53.254;6.460;2022-08-07T10:21:09;23.40;82.60
51637;DHT22;37713;53.254;6.460;2022-08-07T10:32:06;23.10;87.40
51637;DHT22;37713;53.254;6.460;2022-08-07T10:40:37;22.90;86.40
51637;DHT22;37713;53.254;6.460;2022-08-07T10:43:25;23.10;87.70
51637;DHT22;37713;53.254;6.460;2022-08-07T10:45:57;23.10;84.20
51637;DHT22;37713;53.254;6.460;2022-08-07T10:48:41;23.20;87.00
51637;DHT22;37713;53.254;6.460;2022-08-07T10:51:21;23.40;84.70
51637;DHT22;37713;53.254;6.460;2022-08-07T10:54:14;23.40;86.20
51637;DHT22;37713;53.254;6.460;2022-08-07T11:11:00;23.60;83.70
51637;DHT22;37713;53.254;6.460;2022-08-07T11:16:16;23.40;82.50
51637;DHT22;37713;53.254;6.460;2022-08-07T11:18:55;23.30;82.30
51637;DHT22;37713;53.254;6.460;2022-08-07T11:21:26;23.10;81.70
51637;DHT22;37713;53.254;6.460;2022-08-07T11:24:19;22.90;83.30
51637;DHT22;37713;53.254;6.460;2022-08-07T11:27:02;22.60;83.30
51637;DHT22;37713;53.254;6.460;2022-08-07T11:32:22;22.50;86.00
51637;DHT22;37713;53.254;6.460;2022-08-07T11:34:58;22.80;85.00
51637;DHT22;37713;53.254;6.460;2022-08-07T11:40:24;23.00;85.40
51637;DHT22;37713;53.254;6.460;2022-08-07T11:43:16;23.30;87.60
51637;DHT22;37713;53.254;6.460;2022-08-07T11:57:20;23.90;82.20
51637;DHT22;37713;53.254;6.460;2022-08-07T12:00:04;24.00;78.80
51637;DHT22;37713;53.254;6.460;2022-08-07T12:13:40;23.80;81.20
51637;DHT22;37713;53.254;6.460;2022-08-07T12:16:24;23.60;81.80
51637;DHT22;37713;53.254;6.460;2022-08-07T12:19:18;23.60;83.40
51637;DHT22;37713;53.254;6.460;2022-08-07T12:24:29;23.20;83.90
51637;DHT22;37713;53.254;6.460;2022-08-07T12:26:59;23.10;85.90
51637;DHT22;37713;53.254;6.460;2022-08-07T12:32:39;23.00;88.30
51637;DHT22;37713;53.254;6.460;2022-08-07T12:35:09;22.80;88.50
51637;DHT22;37713;53.254;6.460;2022-08-07T12:37:38;22.60;89.60
51637;DHT22;37713;53.254;6.460;2022-08-07T12:40:06;22.70;90.10
51637;DHT22;37713;53.254;6.460;2022-08-07T12:42:33;22.60;90.20
51637;DHT22;37713;53.254;6.460;2022-08-07T12:45:06;22.90;90.80
51637;DHT22;37713;53.254;6.460;2022-08-07T12:47:46;23.20;90.50
51637;DHT22;37713;53.254;6.460;2022-08-07T12:50:36;23.40;90.10
51637;DHT22;37713;53.254;6.460;2022-08-07T12:56:25;23.80;88.70
51637;DHT22;37713;53.254;6.460;2022-08-07T12:58:54;23.70;86.20
51637;DHT22;37713;53.254;6.460;2022-08-07T13:07:00;23.50;90.00
51637;DHT22;37713;53.254;6.460;2022-08-07T13:18:23;23.10;87.80
51637;DHT22;37713;53.254;6.460;2022-08-07T13:20:58;23.10;90.30
51637;DHT22;37713;53.254;6.460;2022-08-07T13:23:52;23.10;90.00
51637;DHT22;37713;53.254;6.460;2022-08-07T13:26:24;22.90;91.10
51637;DHT22;37713;53.254;6.460;2022-08-07T13:29:24;22.90;91.60
51637;DHT22;37713;53.254;6.460;2022-08-07T13:32:02;22.90;91.40
51637;DHT22;37713;53.254;6.460;2022-08-07T13:34:49;23.00;92.00
51637;DHT22;37713;53.254;6.460;2022-08-07T13:37:30;23.10;92.20
51637;DHT22;37713;53.254;6.460;2022-08-07T13:40:26;23.30;87.90
51637;DHT22;37713;53.254;6.460;2022-08-07T13:42:57;23.40;85.90
51637;DHT22;37713;53.254;6.460;2022-08-07T13:45:25;23.30;86.50
51637;DHT22;37713;53.254;6.460;2022-08-07T13:47:52;23.30;85.70
51637;DHT22;37713;53.254;6.460;2022-08-07T13:50:23;23.40;87.70
51637;DHT22;37713;53.254;6.460;2022-08-07T13:52:50;23.40;87.20
51637;DHT22;37713;53.254;6.460;2022-08-07T13:55:19;23.40;86.00
51637;DHT22;37713;53.254;6.460;2022-08-07T13:57:49;23.40;84.60
51637;DHT22;37713;53.254;6.460;2022-08-07T14:00:17;23.40;85.30
51637;DHT22;37713;53.254;6.460;2022-08-07T14:02:46;23.40;86.40
51637;DHT22;37713;53.254;6.460;2022-08-07T14:05:20;23.50;88.00
51637;DHT22;37713;53.254;6.460;2022-08-07T14:07:48;23.40;86.60
51637;DHT22;37713;53.254;6.460;2022-08-07T14:10:15;23.30;88.40
51637;DHT22;37713;53.254;6.460;2022-08-07T14:12:58;23.10;88.60
51637;DHT22;37713;53.254;6.460;2022-08-07T14:15:38;22.90;87.00
51637;DHT22;37713;53.254;6.460;2022-08-07T14:18:15;22.70;88.70
51637;DHT22;37713;53.254;6.460;2022-08-07T14:20:45;22.80;88.50
51637;DHT22;37713;53.254;6.460;2022-08-07T14:23:18;22.60;89.00
51637;DHT22;37713;53.254;6.460;2022-08-07T14:25:46;22.70;89.70
51637;DHT22;37713;53.254;6.460;2022-08-07T14:28:20;22.80;90.00
51637;DHT22;37713;53.254;6.460;2022-08-07T14:30:48;22.60;90.20
51637;DHT22;37713;53.254;6.460;2022-08-07T14:33:15;22.60;90.80
51637;DHT22;37713;53.254;6.460;2022-08-07T14:35:42;22.70;91.30
51637;DHT22;37713;53.254;6.460;2022-08-07T14:38:10;22.60;91.20
51637;DHT22;37713;53.254;6.460;2022-08-07T14:40:38;22.50;91.60
51637;DHT22;37713;53.254;6.460;2022-08-07T14:43:08;22.30;91.60
51637;DHT22;37713;53.254;6.460;2022-08-07T14:45:49;22.40;91.90
51637;DHT22;37713;53.254;6.460;2022-08-07T14:48:19;22.40;92.20
51637;DHT22;37713;53.254;6.460;2022-08-07T14:50:49;22.60;92.50
51637;DHT22;37713;53.254;6.460;2022-08-07T14:53:17;22.40;91.40
51637;DHT22;37713;53.254;6.460;2022-08-07T14:55:44;22.70;93.10
51637;DHT22;37713;53.254;6.460;2022-08-07T14:58:12;23.10;92.10
51637;DHT22;37713;53.254;6.460;2022-08-07T15:00:41;23.30;91.00
51637;DHT22;37713;53.254;6.460;2022-08-07T15:03:08;23.30;90.10
51637;DHT22;37713;53.254;6.460;2022-08-07T15:05:35;23.40;89.60
51637;DHT22;37713;53.254;6.460;2022-08-07T15:08:05;23.70;89.60
51637;DHT22;37713;53.254;6.460;2022-08-07T15:10:35;23.60;89.20
51637;DHT22;37713;53.254;6.460;2022-08-07T15:13:14;23.40;90.00
51637;DHT22;37713;53.254;6.460;2022-08-07T15:15:44;23.20;88.70
51637;DHT22;37713;53.254;6.460;2022-08-07T15:18:14;23.00;88.80
51637;DHT22;37713;53.254;6.460;2022-08-07T15:20:43;22.90;88.70
51637;DHT22;37713;53.254;6.460;2022-08-07T15:23:21;22.80;89.90
51637;DHT22;37713;53.254;6.460;2022-08-07T15:25:54;22.70;89.10
51637;DHT22;37713;53.254;6.460;2022-08-07T15:28:23;22.80;89.60
51637;DHT22;37713;53.254;6.460;2022-08-07T15:30:51;22.90;89.80
51637;DHT22;37713;53.254;6.460;2022-08-07T15:33:20;22.90;90.60
51637;DHT22;37713;53.254;6.460;2022-08-07T15:35:50;22.80;90.70
51637;DHT22;37713;53.254;6.460;2022-08-07T15:38:18;22.60;90.60
51637;DHT22;37713;53.254;6.460;2022-08-07T15:40:49;22.60;90.70
51637;DHT22;37713;53.254;6.460;2022-08-07T15:43:19;22.40;91.20
51637;DHT22;37713;53.254;6.460;2022-08-07T15:45:46;22.30;92.10
51637;DHT22;37713;53.254;6.460;2022-08-07T15:48:21;22.40;92.90
51637;DHT22;37713;53.254;6.460;2022-08-07T15:50:51;22.50;93.10
51637;DHT22;37713;53.254;6.460;2022-08-07T15:53:28;22.30;93.30
51637;DHT22;37713;53.254;6.460;2022-08-07T15:55:58;22.40;94.30
51637;DHT22;37713;53.254;6.460;2022-08-07T15:58:54;22.50;94.70
51637;DHT22;37713;53.254;6.460;2022-08-07T16:01:27;22.70;94.90
51637;DHT22;37713;53.254;6.460;2022-08-07T16:03:58;22.90;95.70
51637;DHT22;37713;53.254;6.460;2022-08-07T16:06:36;22.90;96.30
51637;DHT22;37713;53.254;6.460;2022-08-07T16:12:07;22.60;96.90
51637;DHT22;37713;53.254;6.460;2022-08-07T16:26:15;21.70;99.90
51637;DHT22;37713;53.254;6.460;2022-08-07T16:31:57;21.40;99.90
51637;DHT22;37713;53.254;6.460;2022-08-07T16:40:30;21.40;99.90
51637;DHT22;37713;53.254;6.460;2022-08-07T16:59:06;21.40;99.90
51637;DHT22;37713;53.254;6.460;2022-08-07T17:12:49;21.10;99.90
51637;DHT22;37713;53.254;6.460;2022-08-07T17:15:25;20.80;99.90
51637;DHT22;37713;53.254;6.460;2022-08-07T17:17:56;20.50;99.90
51637;DHT22;37713;53.254;6.460;2022-08-07T17:29:00;20.10;99.90
51637;DHT22;37713;53.254;6.460;2022-08-07T17:31:57;20.00;99.90
51637;DHT22;37713;53.254;6.460;2022-08-07T17:34:48;19.90;99.90
51637;DHT22;37713;53.254;6.460;2022-08-07T17:37:21;19.90;99.90
51637;DHT22;37713;53.254;6.460;2022-08-07T17:40:02;19.80;99.90
51637;DHT22;37713;53.254;6.460;2022-08-07T17:42:43;19.70;99.90
51637;DHT22;37713;53.254;6.460;2022-08-07T17:45:18;19.60;99.90
51637;DHT22;37713;53.254;6.460;2022-08-07T17:48:09;19.50;99.90
51637;DHT22;37713;53.254;6.460;2022-08-07T17:50:49;19.50;99.90
51637;DHT22;37713;53.254;6.460;2022-08-07T17:56:22;19.40;99.90
51637;DHT22;37713;53.254;6.460;2022-08-07T18:06:44;19.10;99.90
51637;DHT22;37713;53.254;6.460;2022-08-07T18:09:21;19.00;99.90
51637;DHT22;37713;53.254;6.460;2022-08-07T18:11:51;19.00;99.90
51637;DHT22;37713;53.254;6.460;2022-08-07T18:19:59;18.80;99.90
51637;DHT22;37713;53.254;6.460;2022-08-07T18:22:31;18.70;99.90
51637;DHT22;37713;53.254;6.460;2022-08-07T18:24:59;18.70;99.90
51637;DHT22;37713;53.254;6.460;2022-08-07T18:27:53;18.60;99.90
51637;DHT22;37713;53.254;6.460;2022-08-07T18:30:31;18.50;99.90
51637;DHT22;37713;53.254;6.460;2022-08-07T18:41:21;18.30;99.90
51637;DHT22;37713;53.254;6.460;2022-08-07T18:44:10;18.20;99.90
51637;DHT22;37713;53.254;6.460;2022-08-07T18:46:52;18.20;99.90
51637;DHT22;37713;53.254;6.460;2022-08-07T18:49:28;18.10;99.90
51637;DHT22;37713;53.254;6.460;2022-08-07T18:55:15;18.00;99.90
51637;DHT22;37713;53.254;6.460;2022-08-07T19:00:45;17.90;99.90
51637;DHT22;37713;53.254;6.460;2022-08-07T19:03:55;17.80;99.90
51637;DHT22;37713;53.254;6.460;2022-08-07T19:06:15;17.70;99.90
51637;DHT22;37713;53.254;6.460;2022-08-07T19:14:15;17.50;99.90
51637;DHT22;37713;53.254;6.460;2022-08-07T19:16:51;17.50;99.90
51637;DHT22;37713;53.254;6.460;2022-08-07T19:22:20;17.40;99.90
51637;DHT22;37713;53.254;6.460;2022-08-07T19:24:49;17.30;99.90
51637;DHT22;37713;53.254;6.460;2022-08-07T19:27:19;17.20;99.90
51637;DHT22;37713;53.254;6.460;2022-08-07T19:29:50;17.10;99.90
51637;DHT22;37713;53.254;6.460;2022-08-07T19:32:17;17.10;99.90
51637;DHT22;37713;53.254;6.460;2022-08-07T19:34:52;17.00;99.90
51637;DHT22;37713;53.254;6.460;2022-08-07T19:37:21;17.00;99.90
51637;DHT22;37713;53.254;6.460;2022-08-07T19:39:58;16.90;99.90
51637;DHT22;37713;53.254;6.460;2022-08-07T19:42:37;16.90;99.90
51637;DHT22;37713;53.254;6.460;2022-08-07T19:45:04;16.80;99.90
51637;DHT22;37713;53.254;6.460;2022-08-07T19:47:33;16.70;99.90
51637;DHT22;37713;53.254;6.460;2022-08-07T19:50:01;16.70;99.90
51637;DHT22;37713;53.254;6.460;2022-08-07T19:52:30;16.60;99.90
51637;DHT22;37713;53.254;6.460;2022-08-07T19:54:56;16.50;99.90
51637;DHT22;37713;53.254;6.460;2022-08-07T19:57:25;16.50;99.90
51637;DHT22;37713;53.254;6.460;2022-08-07T19:59:57;16.40;99.90